Time;durP1;ratioP1;P1;durP2;ratioP2;P2;SDS_P1;SDS_P2;PMS_P1;PMS_P2;Temp;Humidity;BMP_temperature;BMP_pressure;BME280_temperature;BME280_humidity;BME280_pressure;Samples;Min_cycle;Max_cycle;Signal;HPM_P1;HPM_P2
2021/09/09 00:01:34;;;;;;;1056.88;954.78;;;;;;;;;;5016492;28;20026;-75
2021/09/09 00:04:00;;;;;;;1065.97;963.35;;;;;;;;;;5018892;28;20025;-74
2021/09/09 00:06:26;;;;;;;1059.10;956.70;;;;;;;;;;5027981;28;20084;-75
2021/09/09 00:08:52;;;;;;;1056.70;954.38;;;;;;;;;;5010095;28;20496;-75
2021/09/09 00:11:18;;;;;;;1050.53;948.92;;;;;;;;;;5019159;28;20367;-76
2021/09/09 00:13:44;;;;;;;1053.60;951.67;;;;;;;;;;5005439;28;20094;-76
2021/09/09 00:16:10;;;;;;;1052.07;950.25;;;;;;;;;;5016289;28;20029;-74
2021/09/09 00:18:37;;;;;;;1050.18;948.60;;;;;;;;;;5027336;28;20052;-76
2021/09/09 00:21:03;;;;;;;1048.60;946.92;;;;;;;;;;5019003;28;20033;-75
2021/09/09 00:23:29;;;;;;;1055.05;951.67;;;;;;;;;;5027727;28;20088;-76
2021/09/09 00:25:55;;;;;;;1053.80;952.10;;;;;;;;;;5013351;28;20042;-76
2021/09/09 00:28:21;;;;;;;1048.78;946.10;;;;;;;;;;5027693;28;20034;-75
2021/09/09 00:30:50;;;;;;;1044.53;943.05;;;;;;;;;;5008084;28;20029;-76
2021/09/09 00:33:16;;;;;;;1048.25;946.67;;;;;;;;;;5008892;28;20028;-75
2021/09/09 00:35:42;;;;;;;1046.57;945.00;;;;;;;;;;5012911;28;20021;-75
2021/09/09 00:38:08;;;;;;;1047.72;946.17;;;;;;;;;;5010831;28;20049;-76
2021/09/09 00:40:34;;;;;;;1045.65;944.15;;;;;;;;;;5016823;28;20031;-74
2021/09/09 00:43:00;;;;;;;1046.00;944.50;;;;;;;;;;5014142;28;20118;-75
2021/09/09 00:45:26;;;;;;;1041.63;940.35;;;;;;;;;;5027432;28;20032;-75
2021/09/09 00:47:52;;;;;;;1039.03;937.83;;;;;;;;;;5003073;28;20412;-76
2021/09/09 00:50:18;;;;;;;1042.40;941.10;;;;;;;;;;5027040;28;20072;-75
2021/09/09 00:52:45;;;;;;;1053.40;951.15;;;;;;;;;;5022911;28;20033;-75
2021/09/09 00:55:11;;;;;;;1042.85;941.30;;;;;;;;;;5027025;28;20030;-76
2021/09/09 00:57:37;;;;;;;1039.72;938.30;;;;;;;;;;5023127;28;20025;-76
2021/09/09 01:00:04;;;;;;;1054.53;952.08;;;;;;;;;;5017129;28;20029;-76
2021/09/09 01:02:30;;;;;;;1050.10;948.00;;;;;;;;;;5024831;28;20045;-75
2021/09/09 01:04:56;;;;;;;1039.95;938.30;;;;;;;;;;5023380;28;20097;-76
2021/09/09 01:07:22;;;;;;;1035.47;934.25;;;;;;;;;;5014054;28;20056;-75
2021/09/09 01:09:48;;;;;;;1034.40;933.25;;;;;;;;;;5025138;28;20053;-75
2021/09/09 01:12:14;;;;;;;1040.47;938.97;;;;;;;;;;5027051;28;20020;-76
2021/09/09 01:14:40;;;;;;;1038.40;936.97;;;;;;;;;;5026062;28;20030;-75
2021/09/09 01:17:07;;;;;;;1038.28;937.08;;;;;;;;;;5018415;28;20018;-76
2021/09/09 01:19:33;;;;;;;1037.45;935.90;;;;;;;;;;5015226;28;20021;-75
2021/09/09 01:21:59;;;;;;;1038.28;936.97;;;;;;;;;;5016362;28;20063;-76
2021/09/09 01:24:25;;;;;;;1041.43;939.80;;;;;;;;;;5001690;28;20028;-75
2021/09/09 01:26:53;;;;;;;1038.90;937.58;;;;;;;;;;5025616;28;20030;-75
2021/09/09 01:29:19;;;;;;;1039.35;938.13;;;;;;;;;;5022842;28;20029;-76
2021/09/09 01:31:45;;;;;;;1030.70;929.80;;;;;;;;;;5014693;28;20488;-75
2021/09/09 01:34:12;;;;;;;1036.35;935.03;;;;;;;;;;5024405;28;20484;-75
2021/09/09 01:36:38;;;;;;;1031.88;930.38;;;;;;;;;;5007349;28;20124;-75
2021/09/09 01:39:04;;;;;;;1029.50;928.38;;;;;;;;;;5015534;28;20500;-74
2021/09/09 01:41:30;;;;;;;1033.50;932.10;;;;;;;;;;5007756;28;20033;-76
2021/09/09 01:43:56;;;;;;;1027.85;926.75;;;;;;;;;;5026139;28;20056;-75
2021/09/09 01:46:22;;;;;;;1026.30;925.33;;;;;;;;;;5007720;28;20029;-75
2021/09/09 01:48:48;;;;;;;1019.30;918.67;;;;;;;;;;5015019;28;20068;-76
2021/09/09 01:51:13;;;;;;;1025.13;924.13;;;;;;;;;;5009250;28;20025;-77
2021/09/09 01:53:39;;;;;;;1025.68;924.67;;;;;;;;;;5017528;28;20108;-76
2021/09/09 01:56:05;;;;;;;1031.78;930.45;;;;;;;;;;5014378;28;20018;-75
2021/09/09 01:58:31;;;;;;;1026.18;925.17;;;;;;;;;;5002956;28;20091;-75
2021/09/09 02:00:57;;;;;;;1028.07;927.00;;;;;;;;;;5010985;28;20030;-76
2021/09/09 02:03:24;;;;;;;1026.00;925.10;;;;;;;;;;5010257;28;20053;-76
2021/09/09 02:05:50;;;;;;;1030.60;929.38;;;;;;;;;;5011711;28;20088;-76
2021/09/09 02:08:16;;;;;;;1031.60;930.28;;;;;;;;;;5023469;28;20063;-75
2021/09/09 02:10:42;;;;;;;1023.85;922.97;;;;;;;;;;5010692;28;20061;-75
2021/09/09 02:13:08;;;;;;;1022.50;921.85;;;;;;;;;;5015144;28;20033;-75
2021/09/09 02:15:34;;;;;;;1032.13;930.83;;;;;;;;;;5015739;28;20075;-75
2021/09/09 02:18:00;;;;;;;1024.93;924.08;;;;;;;;;;5016027;28;20052;-75
2021/09/09 02:20:26;;;;;;;1025.70;924.67;;;;;;;;;;5024781;28;20029;-76
2021/09/09 02:22:52;;;;;;;1023.58;922.65;;;;;;;;;;5025280;28;20405;-75
2021/09/09 02:25:18;;;;;;;1024.05;923.05;;;;;;;;;;5014215;28;20026;-75
2021/09/09 02:27:44;;;;;;;1030.07;928.92;;;;;;;;;;5022242;28;20030;-76
2021/09/09 02:30:11;;;;;;;1024.88;923.97;;;;;;;;;;5017820;28;20048;-76
2021/09/09 02:32:37;;;;;;;1018.97;918.17;;;;;;;;;;5013877;28;20082;-75
2021/09/09 02:35:03;;;;;;;1025.70;924.42;;;;;;;;;;5024909;28;20568;-76
2021/09/09 02:37:29;;;;;;;1026.72;925.47;;;;;;;;;;5026236;28;20032;-75
2021/09/09 02:39:55;;;;;;;1023.65;922.45;;;;;;;;;;5004964;28;20113;-76
2021/09/09 02:42:21;;;;;;;1015.00;914.45;;;;;;;;;;5025665;28;20021;-76
2021/09/09 02:44:47;;;;;;;1020.38;919.58;;;;;;;;;;5024017;28;20112;-75
2021/09/09 02:47:13;;;;;;;1020.20;919.20;;;;;;;;;;5015369;28;20388;-75
2021/09/09 02:49:39;;;;;;;1021.33;920.40;;;;;;;;;;5025216;28;20021;-75
2021/09/09 02:52:05;;;;;;;1021.28;920.38;;;;;;;;;;5024911;28;20309;-75
2021/09/09 02:54:32;;;;;;;1024.60;922.83;;;;;;;;;;5010026;28;20050;-77
2021/09/09 02:56:58;;;;;;;1026.57;925.30;;;;;;;;;;5024925;28;20025;-76
2021/09/09 02:59:24;;;;;;;1016.97;916.00;;;;;;;;;;5005311;28;20053;-77
2021/09/09 03:01:50;;;;;;;1018.03;917.35;;;;;;;;;;5023522;28;20073;-76
2021/09/09 03:04:16;;;;;;;1017.00;916.20;;;;;;;;;;5022293;28;20442;-76
2021/09/09 03:06:42;;;;;;;1025.22;924.17;;;;;;;;;;5024924;28;20043;-75
2021/09/09 03:09:08;;;;;;;1017.95;916.92;;;;;;;;;;5025098;28;20025;-77
2021/09/09 03:11:34;;;;;;;1018.40;917.70;;;;;;;;;;5007685;28;20017;-76
2021/09/09 03:14:00;;;;;;;1014.33;913.58;;;;;;;;;;5024752;28;20521;-75
2021/09/09 03:16:26;;;;;;;1012.72;911.95;;;;;;;;;;5006361;28;20385;-76
2021/09/09 03:18:52;;;;;;;1016.95;916.08;;;;;;;;;;5003996;28;20200;-76
2021/09/09 03:21:18;;;;;;;1011.20;910.53;;;;;;;;;;5009528;28;20401;-76
2021/09/09 03:23:44;;;;;;;1018.30;917.40;;;;;;;;;;5026561;28;20033;-75
2021/09/09 03:26:10;;;;;;;1014.85;913.90;;;;;;;;;;5008004;28;20087;-76
2021/09/09 03:28:36;;;;;;;1005.08;904.50;;;;;;;;;;5009438;28;20402;-75
2021/09/09 03:31:02;;;;;;;1012.45;911.70;;;;;;;;;;5010439;28;20029;-75
2021/09/09 03:33:28;;;;;;;1005.45;905.05;;;;;;;;;;5013076;28;20040;-75
2021/09/09 03:35:53;;;;;;;1004.15;903.45;;;;;;;;;;5008342;28;20041;-76
2021/09/09 03:38:19;;;;;;;1009.78;909.00;;;;;;;;;;5027960;28;20060;-75
2021/09/09 03:40:45;;;;;;;999.58;899.42;;;;;;;;;;5028857;28;20025;-76
2021/09/09 03:43:11;;;;;;;997.95;897.78;;;;;;;;;;5027955;28;20107;-76
2021/09/09 03:45:37;;;;;;;1003.05;902.75;;;;;;;;;;5009426;28;20061;-75
2021/09/09 03:48:04;;;;;;;1012.25;911.55;;;;;;;;;;5021791;28;20546;-76
2021/09/09 03:50:30;;;;;;;1000.22;899.85;;;;;;;;;;5010985;28;20025;-77
2021/09/09 03:52:56;;;;;;;1001.65;901.50;;;;;;;;;;5025853;28;20026;-76
2021/09/09 03:55:22;;;;;;;1000.20;899.80;;;;;;;;;;5026524;28;20033;-76
2021/09/09 03:57:48;;;;;;;1001.13;900.83;;;;;;;;;;5013276;28;20107;-76
2021/09/09 04:00:15;;;;;;;1000.67;900.20;;;;;;;;;;5015361;28;20385;-76
2021/09/09 04:02:41;;;;;;;1006.08;905.50;;;;;;;;;;5002151;28;20057;-76
2021/09/09 04:05:07;;;;;;;1003.30;902.95;;;;;;;;;;5027608;28;20528;-76
2021/09/09 04:07:33;;;;;;;999.50;899.20;;;;;;;;;;5028229;28;20041;-76
2021/09/09 04:09:59;;;;;;;1003.63;903.00;;;;;;;;;;5027585;28;20063;-75
2021/09/09 04:12:25;;;;;;;1013.42;912.42;;;;;;;;;;5009518;28;20705;-76
2021/09/09 04:14:51;;;;;;;1000.45;900.10;;;;;;;;;;5027105;28;20017;-76
2021/09/09 04:17:17;;;;;;;1001.38;900.80;;;;;;;;;;5017764;28;20021;-75
2021/09/09 04:19:43;;;;;;;1012.10;911.15;;;;;;;;;;5022908;28;20036;-74
2021/09/09 04:22:11;;;;;;;1000.08;899.80;;;;;;;;;;5027120;28;20022;-76
2021/09/09 04:24:37;;;;;;;1010.05;909.28;;;;;;;;;;5018124;28;20037;-75
2021/09/09 04:27:03;;;;;;;997.13;896.80;;;;;;;;;;5022767;28;20108;-75
2021/09/09 04:29:29;;;;;;;999.85;899.65;;;;;;;;;;5021412;28;20580;-74
2021/09/09 04:31:56;;;;;;;1000.35;900.08;;;;;;;;;;5009539;28;20088;-75
2021/09/09 04:34:22;;;;;;;992.55;892.47;;;;;;;;;;5019483;28;20388;-76
2021/09/09 04:36:48;;;;;;;1000.75;900.30;;;;;;;;;;5005642;28;20179;-75
2021/09/09 04:39:14;;;;;;;995.33;895.08;;;;;;;;;;5010478;28;20112;-76
2021/09/09 04:41:40;;;;;;;998.67;898.22;;;;;;;;;;5021957;28;20030;-75
2021/09/09 04:44:06;;;;;;;993.10;892.97;;;;;;;;;;5013979;28;20054;-76
2021/09/09 04:46:32;;;;;;;989.97;889.60;;;;;;;;;;5021021;28;20531;-75
2021/09/09 04:48:58;;;;;;;994.05;893.85;;;;;;;;;;5007897;28;20044;-75
2021/09/09 04:51:25;;;;;;;997.42;897.13;;;;;;;;;;5008260;28;20029;-74
2021/09/09 04:53:51;;;;;;;994.10;893.95;;;;;;;;;;5011878;28;20026;-76
2021/09/09 04:56:17;;;;;;;988.72;888.85;;;;;;;;;;5027382;28;20444;-76
2021/09/09 04:58:43;;;;;;;1000.33;899.80;;;;;;;;;;5006821;28;20125;-76
2021/09/09 05:01:09;;;;;;;993.53;893.50;;;;;;;;;;5024872;28;20032;-76
2021/09/09 05:03:35;;;;;;;992.60;892.50;;;;;;;;;;5004488;28;20112;-77
2021/09/09 05:06:01;;;;;;;991.08;891.10;;;;;;;;;;5009036;28;20179;-77
2021/09/09 05:08:27;;;;;;;989.08;889.00;;;;;;;;;;5026569;28;20037;-77
2021/09/09 05:10:53;;;;;;;1003.88;903.35;;;;;;;;;;5007268;28;20500;-77
2021/09/09 05:13:19;;;;;;;995.35;895.08;;;;;;;;;;5006524;28;20034;-76
2021/09/09 05:15:45;;;;;;;995.50;895.15;;;;;;;;;;5003594;28;20032;-77
2021/09/09 05:18:11;;;;;;;997.88;897.65;;;;;;;;;;5026284;28;20030;-77
2021/09/09 05:20:37;;;;;;;1002.80;902.33;;;;;;;;;;5008599;28;20025;-75
2021/09/09 05:23:03;;;;;;;988.85;888.70;;;;;;;;;;5008696;28;20040;-76
2021/09/09 05:25:29;;;;;;;1000.15;899.55;;;;;;;;;;5004387;28;20067;-76
2021/09/09 05:27:55;;;;;;;1000.33;900.22;;;;;;;;;;5009286;28;20384;-75
2021/09/09 05:30:21;;;;;;;995.90;895.97;;;;;;;;;;5000561;28;20029;-75
2021/09/09 05:32:47;;;;;;;990.97;891.05;;;;;;;;;;5009183;28;20440;-76
2021/09/09 05:35:14;;;;;;;986.85;886.95;;;;;;;;;;5025468;28;20033;-75
2021/09/09 05:37:40;;;;;;;992.78;892.78;;;;;;;;;;5008541;28;20033;-76
2021/09/09 05:40:08;;;;;;;986.08;886.13;;;;;;;;;;5026386;28;20026;-76
2021/09/09 05:42:34;;;;;;;987.78;887.88;;;;;;;;;;5026221;28;20075;-77
2021/09/09 05:45:00;;;;;;;998.95;898.58;;;;;;;;;;5025748;28;20049;-77
2021/09/09 05:47:26;;;;;;;995.47;895.35;;;;;;;;;;5010805;28;20116;-76
2021/09/09 05:49:52;;;;;;;995.40;895.15;;;;;;;;;;5024782;28;20179;-75
2021/09/09 05:52:18;;;;;;;1004.88;904.30;;;;;;;;;;5022646;28;20496;-77
2021/09/09 05:54:44;;;;;;;999.20;899.20;;;;;;;;;;5026228;28;20070;-75
2021/09/09 05:57:10;;;;;;;996.83;896.90;;;;;;;;;;5007680;28;20033;-76
2021/09/09 05:59:36;;;;;;;1001.85;901.78;;;;;;;;;;5023827;28;20022;-77
2021/09/09 06:02:02;;;;;;;1010.33;909.58;;;;;;;;;;4999020;28;20061;-75
2021/09/09 06:04:33;;;;;;;1000.80;900.70;;;;;;;;;;5016198;28;20625;-76
2021/09/09 06:07:00;;;;;;;1001.90;901.72;;;;;;;;;;5020264;28;20539;-76
2021/09/09 06:09:26;;;;;;;1004.50;904.33;;;;;;;;;;5003770;28;20128;-76
2021/09/09 06:11:52;;;;;;;1001.88;900.92;;;;;;;;;;5026469;28;20025;-77
2021/09/09 06:14:18;;;;;;;1001.40;901.22;;;;;;;;;;5007524;28;20032;-76
2021/09/09 06:16:44;;;;;;;1007.03;906.63;;;;;;;;;;5004644;28;20417;-77
2021/09/09 06:19:10;;;;;;;1007.47;907.25;;;;;;;;;;5008239;28;20050;-76
2021/09/09 06:21:36;;;;;;;1016.03;915.30;;;;;;;;;;5015402;28;20536;-77
2021/09/09 06:24:06;;;;;;;1009.80;909.30;;;;;;;;;;5015798;28;20033;-77
2021/09/09 06:26:32;;;;;;;1022.72;921.70;;;;;;;;;;5018046;28;20037;-77
2021/09/09 06:28:58;;;;;;;1010.63;910.28;;;;;;;;;;5013911;28;20037;-76
2021/09/09 06:31:24;;;;;;;1020.03;919.42;;;;;;;;;;5009259;28;20030;-76
2021/09/09 06:33:50;;;;;;;1026.82;925.83;;;;;;;;;;5016039;28;20280;-75
2021/09/09 06:36:16;;;;;;;1032.72;931.60;;;;;;;;;;5026420;28;20028;-77
2021/09/09 06:38:42;;;;;;;1035.97;934.75;;;;;;;;;;5008246;28;20036;-77
2021/09/09 06:41:08;;;;;;;1036.25;934.83;;;;;;;;;;5023402;28;20101;-76
2021/09/09 06:43:34;;;;;;;1040.65;939.40;;;;;;;;;;5023999;28;20327;-77
2021/09/09 06:46:00;;;;;;;1036.88;935.60;;;;;;;;;;5006858;28;20096;-76
2021/09/09 06:48:26;;;;;;;1037.03;935.92;;;;;;;;;;5023359;28;20021;-77
2021/09/09 06:50:52;;;;;;;1046.07;944.55;;;;;;;;;;5019404;28;20151;-76
2021/09/09 06:53:19;;;;;;;1046.75;945.15;;;;;;;;;;5013850;28;20052;-76
2021/09/09 06:55:46;;;;;;;1057.63;955.45;;;;;;;;;;5010159;28;20053;-76
2021/09/09 06:58:12;;;;;;;1057.30;954.95;;;;;;;;;;5026502;28;20444;-76
2021/09/09 07:00:38;;;;;;;1059.07;956.72;;;;;;;;;;5025366;28;20025;-77
2021/09/09 07:03:04;;;;;;;1068.72;966.25;;;;;;;;;;5023223;28;20029;-76
2021/09/09 07:05:30;;;;;;;1065.60;963.47;;;;;;;;;;5009538;28;20029;-76
2021/09/09 07:07:56;;;;;;;1071.03;968.30;;;;;;;;;;5031656;28;20053;-76
2021/09/09 07:10:24;;;;;;;1083.28;980.00;;;;;;;;;;5020158;28;20061;-76
2021/09/09 07:12:50;;;;;;;1075.78;973.03;;;;;;;;;;5029241;28;20112;-75
2021/09/09 07:15:16;;;;;;;1083.22;979.97;;;;;;;;;;5029395;28;20442;-76
2021/09/09 07:17:42;;;;;;;1084.35;980.90;;;;;;;;;;5012024;28;20413;-76
2021/09/09 07:20:08;;;;;;;1087.05;983.58;;;;;;;;;;5017061;28;20112;-76
2021/09/09 07:22:34;;;;;;;1096.78;993.10;;;;;;;;;;5029258;28;20327;-77
2021/09/09 07:25:00;;;;;;;1097.45;993.20;;;;;;;;;;5025351;28;20124;-76
2021/09/09 07:27:26;;;;;;;1091.97;988.67;;;;;;;;;;5026814;28;20029;-76
2021/09/09 07:29:52;;;;;;;1095.07;991.58;;;;;;;;;;4986599;28;20050;-77
2021/09/09 07:32:18;;;;;;;1101.05;995.88;;;;;;;;;;5028419;28;20061;-76
2021/09/09 07:34:44;;;;;;;1108.47;999.42;;;;;;;;;;5017245;28;20020;-77
2021/09/09 07:37:10;;;;;;;1107.90;999.33;;;;;;;;;;5016538;28;20022;-76
2021/09/09 07:39:36;;;;;;;1121.03;999.90;;;;;;;;;;4999911;28;20509;-76
2021/09/09 07:42:02;;;;;;;1115.78;999.90;;;;;;;;;;5020057;28;20399;-76
2021/09/09 07:44:28;;;;;;;1123.35;999.90;;;;;;;;;;5018954;28;20076;-77
2021/09/09 07:46:54;;;;;;;1119.07;999.90;;;;;;;;;;5014485;28;20030;-76
2021/09/09 07:49:20;;;;;;;1133.20;999.90;;;;;;;;;;5023414;28;20034;-76
2021/09/09 07:51:48;;;;;;;1131.72;999.90;;;;;;;;;;5009533;28;20234;-76
2021/09/09 07:54:14;;;;;;;1129.82;999.90;;;;;;;;;;5006249;28;20060;-77
2021/09/09 07:56:40;;;;;;;1129.55;999.90;;;;;;;;;;5028069;28;20053;-77
2021/09/09 07:59:06;;;;;;;1134.57;999.90;;;;;;;;;;5007988;28;20097;-78
2021/09/09 08:01:32;;;;;;;1143.57;999.90;;;;;;;;;;5027007;28;20811;-77
2021/09/09 08:03:58;;;;;;;1147.57;999.90;;;;;;;;;;5025475;28;20033;-78
2021/09/09 08:06:24;;;;;;;1149.15;999.90;;;;;;;;;;5026244;28;20021;-77
2021/09/09 08:08:50;;;;;;;1154.18;999.90;;;;;;;;;;5001896;28;20057;-77
2021/09/09 08:11:16;;;;;;;1152.03;999.90;;;;;;;;;;5023316;28;20025;-77
2021/09/09 08:13:42;;;;;;;1154.70;999.90;;;;;;;;;;5021014;28;20404;-76
2021/09/09 08:16:08;;;;;;;1160.88;999.90;;;;;;;;;;5026188;28;20034;-76
2021/09/09 08:18:34;;;;;;;1179.75;999.90;;;;;;;;;;5003169;28;20362;-76
2021/09/09 08:21:01;;;;;;;1170.78;999.90;;;;;;;;;;5011131;28;20542;-75
2021/09/09 08:23:27;;;;;;;1172.65;999.90;;;;;;;;;;5010257;28;20021;-76
2021/09/09 08:25:53;;;;;;;1183.35;999.90;;;;;;;;;;5016592;28;20032;-76
2021/09/09 08:28:20;;;;;;;1192.32;999.90;;;;;;;;;;5023145;28;20847;-75
2021/09/09 08:30:46;;;;;;;1201.60;999.90;;;;;;;;;;5028052;28;20100;-75
2021/09/09 08:33:12;;;;;;;1211.35;999.90;;;;;;;;;;5014182;28;20519;-77
2021/09/09 08:35:40;;;;;;;1210.97;999.90;;;;;;;;;;5009138;28;20164;-76
2021/09/09 08:38:06;;;;;;;1217.07;999.90;;;;;;;;;;5028991;28;20028;-75
2021/09/09 08:40:32;;;;;;;1222.18;999.90;;;;;;;;;;5018085;28;20159;-75
2021/09/09 08:42:59;;;;;;;1235.03;999.90;;;;;;;;;;5025655;28;20097;-76
2021/09/09 08:45:25;;;;;;;1230.88;999.90;;;;;;;;;;5028452;28;20033;-76
2021/09/09 08:47:51;;;;;;;1235.00;999.90;;;;;;;;;;5019246;28;20381;-75
2021/09/09 08:50:17;;;;;;;1246.30;999.90;;;;;;;;;;5025683;28;20025;-76
2021/09/09 08:52:44;;;;;;;1238.82;999.90;;;;;;;;;;5009836;28;20030;-76
2021/09/09 08:55:10;;;;;;;1252.60;999.90;;;;;;;;;;5008583;28;20082;-77
2021/09/09 08:57:36;;;;;;;1255.25;999.90;;;;;;;;;;5017657;28;20481;-77
2021/09/09 09:00:04;;;;;;;1255.13;999.90;;;;;;;;;;5026940;28;20032;-75
2021/09/09 09:02:30;;;;;;;1244.57;999.90;;;;;;;;;;5000188;28;20041;-76
2021/09/09 09:05:07;;;;;;;1253.43;999.90;;;;;;;;;;5023667;28;20060;-76
2021/09/09 09:07:34;;;;;;;1250.65;999.90;;;;;;;;;;5013015;28;20033;-76
2021/09/09 09:10:03;;;;;;;1251.05;999.90;;;;;;;;;;5029610;28;20029;-77
2021/09/09 09:12:39;;;;;;;1246.15;999.90;;;;;;;;;;5010951;28;20108;-76
2021/09/09 09:15:14;;;;;;;1242.65;999.90;;;;;;;;;;5020951;28;20021;-75
2021/09/09 09:17:52;;;;;;;1241.75;999.90;;;;;;;;;;5012747;28;20024;-75
2021/09/09 09:20:18;;;;;;;1241.70;999.90;;;;;;;;;;5010041;28;20025;-75
2021/09/09 09:22:44;;;;;;;1243.97;999.90;;;;;;;;;;5017271;28;20346;-76
2021/09/09 09:25:10;;;;;;;1245.90;999.90;;;;;;;;;;5027056;28;20097;-76
2021/09/09 09:27:45;;;;;;;1242.35;999.90;;;;;;;;;;5018155;28;20068;-77
2021/09/09 09:30:12;;;;;;;1235.80;999.90;;;;;;;;;;4998698;28;20026;-76
2021/09/09 09:32:48;;;;;;;1244.07;999.90;;;;;;;;;;5024438;28;20030;-76
2021/09/09 09:35:18;;;;;;;1245.10;999.90;;;;;;;;;;5018436;28;20121;-76
2021/09/09 09:38:07;;;;;;;1248.95;999.90;;;;;;;;;;5019374;28;20420;-77
2021/09/09 09:40:40;;;;;;;1258.23;999.90;;;;;;;;;;5004676;28;20021;-76
2021/09/09 09:43:08;;;;;;;1253.03;999.90;;;;;;;;;;5012674;28;20287;-78
2021/09/09 09:45:34;;;;;;;1253.68;999.90;;;;;;;;;;5008813;28;20473;-76
2021/09/09 09:48:00;;;;;;;1257.80;999.90;;;;;;;;;;5005608;28;20108;-76
2021/09/09 09:50:26;;;;;;;1262.32;999.90;;;;;;;;;;5025804;28;20100;-76
2021/09/09 09:53:11;;;;;;;1262.15;999.90;;;;;;;;;;5026802;28;20116;-76
2021/09/09 09:55:41;;;;;;;1258.15;999.90;;;;;;;;;;5016506;28;20065;-76
2021/09/09 09:58:07;;;;;;;;;;;;;;;;;;5026854;28;20021;-76
2021/09/09 10:00:33;;;;;;;1261.68;999.90;;;;;;;;;;5024407;28;19909;-76
2021/09/09 10:02:59;;;;;;;1285.05;999.90;;;;;;;;;;5024168;28;20040;-76
2021/09/09 10:05:25;;;;;;;1283.38;999.90;;;;;;;;;;5011108;28;20055;-75
2021/09/09 10:07:52;;;;;;;1288.63;999.90;;;;;;;;;;5025352;28;20084;-74
2021/09/09 10:10:18;;;;;;;1299.10;999.90;;;;;;;;;;5008493;28;20926;-75
2021/09/09 10:12:47;;;;;;;1306.32;999.90;;;;;;;;;;5021414;28;20036;-76
2021/09/09 10:15:13;;;;;;;1308.45;999.90;;;;;;;;;;5017103;28;20021;-76
2021/09/09 10:17:41;;;;;;;1306.05;999.90;;;;;;;;;;5026508;28;20048;-76
2021/09/09 10:20:25;;;;;;;1315.22;999.90;;;;;;;;;;5025903;28;20068;-75
2021/09/09 10:23:02;;;;;;;1298.07;999.90;;;;;;;;;;5019314;28;20132;-75
2021/09/09 10:25:46;;;;;;;1291.32;999.90;;;;;;;;;;5026160;28;20022;-75
2021/09/09 10:28:32;;;;;;;1286.68;999.90;;;;;;;;;;5025234;28;20083;-75
2021/09/09 10:31:05;;;;;;;1281.80;999.90;;;;;;;;;;5011039;28;20147;-75
2021/09/09 10:33:31;;;;;;;1278.68;999.90;;;;;;;;;;5018453;28;20116;-75
2021/09/09 10:35:59;;;;;;;1276.70;999.90;;;;;;;;;;5029604;28;20265;-75
2021/09/09 10:38:28;;;;;;;1269.78;999.90;;;;;;;;;;5030511;28;20132;-76
2021/09/09 10:40:54;;;;;;;1268.82;999.90;;;;;;;;;;5029191;28;20021;-75
2021/09/09 10:43:23;;;;;;;1271.25;999.90;;;;;;;;;;5029372;28;20128;-75
2021/09/09 10:45:49;;;;;;;1256.63;999.90;;;;;;;;;;5015304;28;20028;-75
2021/09/09 10:48:15;;;;;;;1266.30;999.90;;;;;;;;;;5029635;28;20030;-76
2021/09/09 10:50:41;;;;;;;1273.72;999.90;;;;;;;;;;5029591;28;20103;-74
2021/09/09 10:53:09;;;;;;;1271.75;999.90;;;;;;;;;;5020389;28;20033;-75
2021/09/09 10:55:36;;;;;;;1263.18;999.90;;;;;;;;;;5029245;28;20034;-74
2021/09/09 10:58:20;;;;;;;1262.80;999.90;;;;;;;;;;5014872;28;20071;-75
2021/09/09 11:00:52;;;;;;;1263.75;999.90;;;;;;;;;;5021874;28;20056;-75
2021/09/09 11:03:34;;;;;;;1263.57;999.90;;;;;;;;;;5021325;28;20135;-75
2021/09/09 11:06:01;;;;;;;1277.60;999.90;;;;;;;;;;5006746;28;20030;-75
2021/09/09 11:08:27;;;;;;;1271.57;999.90;;;;;;;;;;5018762;28;20508;-75
2021/09/09 11:10:54;;;;;;;1274.05;999.90;;;;;;;;;;5019677;28;20337;-75
2021/09/09 11:13:27;;;;;;;1273.97;999.90;;;;;;;;;;5018010;28;20327;-75
2021/09/09 11:15:53;;;;;;;1280.90;999.90;;;;;;;;;;5018585;28;20572;-75
2021/09/09 11:18:35;;;;;;;1277.05;999.90;;;;;;;;;;5029299;28;20090;-75
2021/09/09 11:21:05;;;;;;;1279.55;999.90;;;;;;;;;;5010640;28;20026;-75
2021/09/09 11:23:32;;;;;;;1278.05;999.90;;;;;;;;;;5029262;28;20033;-75
2021/09/09 11:26:08;;;;;;;1270.65;999.90;;;;;;;;;;5029228;28;20042;-75
2021/09/09 11:28:34;;;;;;;1267.75;999.90;;;;;;;;;;5026644;28;20041;-75
2021/09/09 11:31:04;;;;;;;1272.68;999.90;;;;;;;;;;5016674;28;20025;-75
2021/09/09 11:33:30;;;;;;;1271.78;999.90;;;;;;;;;;5015107;28;20029;-76
2021/09/09 11:36:00;;;;;;;1267.63;999.90;;;;;;;;;;5023786;28;20021;-75
2021/09/09 11:38:30;;;;;;;1273.55;999.90;;;;;;;;;;5022448;28;20036;-78
2021/09/09 11:40:56;;;;;;;;;;;;;;;;;;5018337;28;20033;-75
2021/09/09 11:43:23;;;;;;;1272.22;999.90;;;;;;;;;;5012019;28;19917;-74
2021/09/09 11:45:53;;;;;;;1282.63;999.90;;;;;;;;;;5022100;28;20116;-75
2021/09/09 11:48:23;;;;;;;1294.80;999.90;;;;;;;;;;5012000;28;20038;-75
2021/09/09 11:50:49;;;;;;;1308.40;999.90;;;;;;;;;;5030592;28;20014;-74
2021/09/09 11:53:25;;;;;;;1330.63;999.90;;;;;;;;;;5012310;28;20035;-74
2021/09/09 11:55:54;;;;;;;1351.80;999.90;;;;;;;;;;5012816;28;20018;-75
2021/09/09 11:58:37;;;;;;;1374.45;999.90;;;;;;;;;;5028038;28;20014;-74
2021/09/09 12:01:06;;;;;;;1382.15;999.90;;;;;;;;;;5029525;28;20044;-74
2021/09/09 12:03:32;;;;;;;1385.95;999.90;;;;;;;;;;5011806;28;20018;-74
2021/09/09 12:05:59;;;;;;;1382.35;999.90;;;;;;;;;;5009243;28;20072;-74
2021/09/09 12:08:25;;;;;;;1363.18;999.90;;;;;;;;;;5005908;28;20026;-75
2021/09/09 12:10:51;;;;;;;1356.22;999.90;;;;;;;;;;5007183;28;20025;-75
2021/09/09 12:13:31;;;;;;;1339.47;999.90;;;;;;;;;;5026916;28;20032;-75
2021/09/09 12:16:09;;;;;;;1322.13;999.90;;;;;;;;;;5009555;28;20104;-75
2021/09/09 12:18:35;;;;;;;1314.28;999.90;;;;;;;;;;5024482;28;20022;-75
2021/09/09 12:21:13;;;;;;;1311.38;999.90;;;;;;;;;;5008152;28;20079;-75
2021/09/09 12:23:39;;;;;;;1314.13;999.90;;;;;;;;;;5015922;28;20044;-74
2021/09/09 12:26:23;;;;;;;1320.13;999.90;;;;;;;;;;5010068;28;20120;-74
2021/09/09 12:28:49;;;;;;;1309.05;999.90;;;;;;;;;;5007947;28;20048;-74
2021/09/09 12:31:29;;;;;;;1310.80;999.90;;;;;;;;;;5010662;28;20022;-75
2021/09/09 12:33:55;;;;;;;1295.80;999.90;;;;;;;;;;5009353;28;20608;-75
2021/09/09 12:36:22;;;;;;;1292.68;999.90;;;;;;;;;;5009365;28;20083;-75
2021/09/09 12:38:58;;;;;;;1290.07;999.90;;;;;;;;;;5029563;28;20078;-75
2021/09/09 12:41:29;;;;;;;1282.30;999.90;;;;;;;;;;5024636;28;20022;-75
2021/09/09 12:44:02;;;;;;;1280.20;999.90;;;;;;;;;;5025769;28;20435;-75
2021/09/09 12:46:46;;;;;;;1283.75;999.90;;;;;;;;;;5027448;28;20049;-75
2021/09/09 12:49:15;;;;;;;1274.70;999.90;;;;;;;;;;5009530;28;20861;-75
2021/09/09 12:51:51;;;;;;;1272.57;999.90;;;;;;;;;;5014583;28;20025;-75
2021/09/09 12:54:18;;;;;;;1276.93;999.90;;;;;;;;;;5046736;28;20060;-75
2021/09/09 12:56:45;;;;;;;1272.53;999.90;;;;;;;;;;5013586;28;20120;-75
2021/09/09 12:59:12;;;;;;;1275.70;999.90;;;;;;;;;;4995466;28;20390;-75
2021/09/09 13:01:38;;;;;;;1288.43;999.90;;;;;;;;;;5008489;28;20053;-75
2021/09/09 13:04:04;;;;;;;1284.85;999.90;;;;;;;;;;5026509;28;20076;-75
2021/09/09 13:06:29;;;;;;;1294.60;999.90;;;;;;;;;;5019479;28;20599;-75
2021/09/09 13:08:56;;;;;;;1296.22;999.90;;;;;;;;;;5014487;28;20028;-74
2021/09/09 13:11:22;;;;;;;1288.80;999.90;;;;;;;;;;5003549;28;20033;-75
2021/09/09 13:13:48;;;;;;;1297.68;999.90;;;;;;;;;;5030700;28;20033;-74
2021/09/09 13:16:14;;;;;;;1287.05;999.90;;;;;;;;;;5005160;28;20197;-74
2021/09/09 13:18:41;;;;;;;1281.03;999.90;;;;;;;;;;5028868;28;20026;-74
2021/09/09 13:21:08;;;;;;;1288.97;999.90;;;;;;;;;;5009745;28;20075;-75
2021/09/09 13:23:34;;;;;;;1286.68;999.90;;;;;;;;;;5007287;28;20463;-75
2021/09/09 13:26:00;;;;;;;1284.75;999.90;;;;;;;;;;5012312;28;20056;-75
2021/09/09 13:28:25;;;;;;;1293.55;999.90;;;;;;;;;;5028447;28;20072;-75
2021/09/09 13:30:51;;;;;;;1285.00;999.90;;;;;;;;;;5012884;28;20054;-75
2021/09/09 13:33:18;;;;;;;1283.95;999.90;;;;;;;;;;5014080;28;20030;-75
2021/09/09 13:35:44;;;;;;;1291.38;999.90;;;;;;;;;;5026947;28;20030;-75
2021/09/09 13:38:10;;;;;;;1297.45;999.90;;;;;;;;;;5011490;28;20028;-75
2021/09/09 13:40:36;;;;;;;1285.53;999.90;;;;;;;;;;5029228;28;20029;-75
2021/09/09 13:43:02;;;;;;;1298.78;999.90;;;;;;;;;;5027880;28;20064;-75